Airfield :
LOGIN :

Register | Disclaimer

   EN    FR    IT 

 










Legend :    VFR   Marginal VFR   IFR   Intensive IFR   Very Intensive IFR
Visi :
Ceiling :
>= 8 km
>= 3000ft
5 to 8 km
1000 to 3000 ft
1500m to 5 km
500 to 1000 ft
800 to 1500m
200 to 500 ft
< 800m
< 200 ft
Symbols :   Thunderstorms  Fog  Heavy snow  Heavy precipitations  Wind > 20 kt
SIGMETs :     Misc.  Thunderstorms  Icing  Turbulence  Mountain Waves  Volcanic Ashes







- Airport Elevation : 3006 ft
- IATA code : LEN


LELN - Leon

CURRENT METAR :
  • 230630Z VRB02KT CAVOK 08/07 Q1020

EXPIRED METARs :
  • 230600Z VRB02KT CAVOK 08/07 Q1020
  • 230530Z AUTO VRB01KT 9000 NSC 08/07 Q1020
  • 230500Z AUTO VRB01KT 9000 NSC 06/06 Q1020
  • 230430Z AUTO 27002KT CAVOK 06/05 Q1020
  • 230400Z AUTO 00000KT 8000 NCD 06/05 Q1020
  • 230000Z AUTO 00000KT 9999 NCD 09/07 Q1019

TAF TAF LELN
Valid from the 23 at 06:00 until the 23 at 15:00 UTC


230500Z 2306/2315 VRB05KT CAVOK
BECMG 2309/2311 22010KT
PROB30
TEMPO 2306/2309 3000 BR NSC
No reported NOTAMs for that airfield.



MET'MAP, your aeronautical weather chart ! - Copyright ORBIFLY December 2007 - Disclaimer

ORBIFLY MET'MAP TEAM :

Programming & Development : Alexandra Zaïnal
Concept & Development : Baudouin d'Aumeries
Co-Development & Prog : Marc-Olivier Méhu
Technical & hardware support : Manuel Goepfert

Contact : metmap@orbifly.com




SOURCES & CREDITS :

   NOAA